sensor_id;sensor_type;location;lat;lon;timestamp;P1;durP1;ratioP1;P2;durP2;ratioP2
36449;SDS011;22475;51.390;7.180;2022-07-10T00:00:07;2.47;;;0.90;;
36449;SDS011;22475;51.390;7.180;2022-07-10T00:02:35;1.80;;;0.70;;
36449;SDS011;22475;51.390;7.180;2022-07-10T00:05:04;0.65;;;0.60;;
36449;SDS011;22475;51.390;7.180;2022-07-10T00:07:32;1.20;;;1.10;;
36449;SDS011;22475;51.390;7.180;2022-07-10T00:09:59;3.45;;;0.40;;
36449;SDS011;22475;51.390;7.180;2022-07-10T00:12:26;3.78;;;1.00;;
36449;SDS011;22475;51.390;7.180;2022-07-10T00:14:53;3.45;;;0.50;;
36449;SDS011;22475;51.390;7.180;2022-07-10T00:17:20;1.65;;;0.60;;
36449;SDS011;22475;51.390;7.180;2022-07-10T00:19:47;4.20;;;0.98;;
36449;SDS011;22475;51.390;7.180;2022-07-10T00:22:15;0.52;;;0.40;;
36449;SDS011;22475;51.390;7.180;2022-07-10T00:24:42;3.60;;;0.80;;
36449;SDS011;22475;51.390;7.180;2022-07-10T00:27:09;3.05;;;0.70;;
36449;SDS011;22475;51.390;7.180;2022-07-10T00:29:36;2.50;;;0.80;;
36449;SDS011;22475;51.390;7.180;2022-07-10T00:32:04;4.25;;;0.73;;
36449;SDS011;22475;51.390;7.180;2022-07-10T00:34:31;2.13;;;0.63;;
36449;SDS011;22475;51.390;7.180;2022-07-10T00:36:59;2.50;;;0.40;;
36449;SDS011;22475;51.390;7.180;2022-07-10T00:39:27;1.85;;;0.50;;
36449;SDS011;22475;51.390;7.180;2022-07-10T00:41:54;3.53;;;0.65;;
36449;SDS011;22475;51.390;7.180;2022-07-10T00:44:21;3.00;;;0.70;;
36449;SDS011;22475;51.390;7.180;2022-07-10T00:46:48;9.15;;;1.20;;
36449;SDS011;22475;51.390;7.180;2022-07-10T00:49:15;1.17;;;0.68;;
36449;SDS011;22475;51.390;7.180;2022-07-10T00:51:42;0.95;;;0.80;;
36449;SDS011;22475;51.390;7.180;2022-07-10T00:54:09;1.58;;;0.68;;
36449;SDS011;22475;51.390;7.180;2022-07-10T00:56:38;5.72;;;0.80;;
36449;SDS011;22475;51.390;7.180;2022-07-10T00:59:06;1.50;;;0.70;;
36449;SDS011;22475;51.390;7.180;2022-07-10T01:01:32;2.30;;;0.35;;
36449;SDS011;22475;51.390;7.180;2022-07-10T01:04:00;1.40;;;0.65;;
36449;SDS011;22475;51.390;7.180;2022-07-10T01:06:26;1.35;;;0.43;;
36449;SDS011;22475;51.390;7.180;2022-07-10T01:08:53;0.70;;;0.68;;
36449;SDS011;22475;51.390;7.180;2022-07-10T01:11:20;2.67;;;0.95;;
36449;SDS011;22475;51.390;7.180;2022-07-10T01:13:49;2.25;;;0.80;;
36449;SDS011;22475;51.390;7.180;2022-07-10T01:16:16;3.33;;;0.65;;
36449;SDS011;22475;51.390;7.180;2022-07-10T01:18:43;2.72;;;0.68;;
36449;SDS011;22475;51.390;7.180;2022-07-10T01:21:24;0.82;;;0.70;;
36449;SDS011;22475;51.390;7.180;2022-07-10T01:23:52;2.00;;;0.70;;
36449;SDS011;22475;51.390;7.180;2022-07-10T01:26:19;2.67;;;1.00;;
36449;SDS011;22475;51.390;7.180;2022-07-10T01:28:48;1.63;;;0.60;;
36449;SDS011;22475;51.390;7.180;2022-07-10T01:31:16;1.42;;;0.68;;
36449;SDS011;22475;51.390;7.180;2022-07-10T01:33:44;1.50;;;0.70;;
36449;SDS011;22475;51.390;7.180;2022-07-10T01:36:11;1.40;;;0.73;;
36449;SDS011;22475;51.390;7.180;2022-07-10T01:38:40;6.57;;;0.80;;
36449;SDS011;22475;51.390;7.180;2022-07-10T01:41:07;4.47;;;1.00;;
36449;SDS011;22475;51.390;7.180;2022-07-10T01:43:34;2.42;;;0.68;;
36449;SDS011;22475;51.390;7.180;2022-07-10T01:46:01;2.70;;;0.65;;
36449;SDS011;22475;51.390;7.180;2022-07-10T01:48:28;0.52;;;0.30;;
36449;SDS011;22475;51.390;7.180;2022-07-10T01:50:56;2.15;;;0.47;;
36449;SDS011;22475;51.390;7.180;2022-07-10T01:53:23;2.80;;;1.05;;
36449;SDS011;22475;51.390;7.180;2022-07-10T01:55:51;5.20;;;0.77;;
36449;SDS011;22475;51.390;7.180;2022-07-10T01:58:18;2.63;;;0.60;;
36449;SDS011;22475;51.390;7.180;2022-07-10T02:00:45;1.08;;;0.50;;
36449;SDS011;22475;51.390;7.180;2022-07-10T02:03:12;2.47;;;0.75;;
36449;SDS011;22475;51.390;7.180;2022-07-10T02:05:56;1.25;;;0.52;;
36449;SDS011;22475;51.390;7.180;2022-07-10T02:08:23;5.30;;;0.98;;
36449;SDS011;22475;51.390;7.180;2022-07-10T02:10:52;1.30;;;0.52;;
36449;SDS011;22475;51.390;7.180;2022-07-10T02:13:19;5.53;;;0.65;;
36449;SDS011;22475;51.390;7.180;2022-07-10T02:15:46;4.10;;;1.10;;
36449;SDS011;22475;51.390;7.180;2022-07-10T02:18:13;1.13;;;0.60;;
36449;SDS011;22475;51.390;7.180;2022-07-10T02:20:40;1.35;;;0.70;;
36449;SDS011;22475;51.390;7.180;2022-07-10T02:23:07;9.05;;;0.82;;
36449;SDS011;22475;51.390;7.180;2022-07-10T02:25:34;3.53;;;0.73;;
36449;SDS011;22475;51.390;7.180;2022-07-10T02:28:02;4.55;;;0.47;;
36449;SDS011;22475;51.390;7.180;2022-07-10T02:30:30;4.88;;;0.77;;
36449;SDS011;22475;51.390;7.180;2022-07-10T02:32:57;5.68;;;0.57;;
36449;SDS011;22475;51.390;7.180;2022-07-10T02:35:24;4.93;;;0.80;;
36449;SDS011;22475;51.390;7.180;2022-07-10T02:37:51;5.68;;;0.63;;
36449;SDS011;22475;51.390;7.180;2022-07-10T02:40:18;1.33;;;0.73;;
36449;SDS011;22475;51.390;7.180;2022-07-10T02:42:45;1.17;;;0.90;;
36449;SDS011;22475;51.390;7.180;2022-07-10T02:45:13;2.50;;;1.42;;
36449;SDS011;22475;51.390;7.180;2022-07-10T02:47:40;2.35;;;0.63;;
36449;SDS011;22475;51.390;7.180;2022-07-10T02:50:08;1.08;;;0.50;;
36449;SDS011;22475;51.390;7.180;2022-07-10T02:52:35;7.63;;;0.95;;
36449;SDS011;22475;51.390;7.180;2022-07-10T02:55:02;1.58;;;0.40;;
36449;SDS011;22475;51.390;7.180;2022-07-10T02:57:30;3.05;;;0.77;;
36449;SDS011;22475;51.390;7.180;2022-07-10T02:59:57;2.00;;;0.40;;
36449;SDS011;22475;51.390;7.180;2022-07-10T03:02:25;2.80;;;0.52;;
36449;SDS011;22475;51.390;7.180;2022-07-10T03:04:52;2.45;;;0.95;;
36449;SDS011;22475;51.390;7.180;2022-07-10T03:07:19;1.42;;;0.60;;
36449;SDS011;22475;51.390;7.180;2022-07-10T03:09:46;3.28;;;0.65;;
36449;SDS011;22475;51.390;7.180;2022-07-10T03:12:13;2.85;;;0.50;;
36449;SDS011;22475;51.390;7.180;2022-07-10T03:14:40;4.80;;;0.60;;
36449;SDS011;22475;51.390;7.180;2022-07-10T03:17:07;2.72;;;0.60;;
36449;SDS011;22475;51.390;7.180;2022-07-10T03:19:35;4.28;;;0.50;;
36449;SDS011;22475;51.390;7.180;2022-07-10T03:22:02;3.50;;;0.70;;
36449;SDS011;22475;51.390;7.180;2022-07-10T03:24:29;1.63;;;0.68;;
36449;SDS011;22475;51.390;7.180;2022-07-10T03:26:56;3.25;;;0.80;;
36449;SDS011;22475;51.390;7.180;2022-07-10T03:29:23;2.75;;;0.40;;
36449;SDS011;22475;51.390;7.180;2022-07-10T03:31:50;2.95;;;0.50;;
36449;SDS011;22475;51.390;7.180;2022-07-10T03:34:17;3.53;;;0.68;;
36449;SDS011;22475;51.390;7.180;2022-07-10T03:36:45;9.75;;;1.60;;
36449;SDS011;22475;51.390;7.180;2022-07-10T03:39:12;2.55;;;0.70;;
36449;SDS011;22475;51.390;7.180;2022-07-10T03:41:39;6.35;;;0.57;;
36449;SDS011;22475;51.390;7.180;2022-07-10T03:44:05;3.20;;;0.40;;
36449;SDS011;22475;51.390;7.180;2022-07-10T03:46:32;2.60;;;1.85;;
36449;SDS011;22475;51.390;7.180;2022-07-10T03:48:59;5.28;;;1.20;;
36449;SDS011;22475;51.390;7.180;2022-07-10T03:51:26;1.92;;;0.75;;
36449;SDS011;22475;51.390;7.180;2022-07-10T03:53:54;2.95;;;0.70;;
36449;SDS011;22475;51.390;7.180;2022-07-10T03:56:21;1.98;;;0.70;;
36449;SDS011;22475;51.390;7.180;2022-07-10T03:59:05;1.75;;;0.70;;
36449;SDS011;22475;51.390;7.180;2022-07-10T04:01:32;2.00;;;0.75;;
36449;SDS011;22475;51.390;7.180;2022-07-10T04:03:59;1.95;;;0.68;;
36449;SDS011;22475;51.390;7.180;2022-07-10T04:06:26;1.95;;;0.80;;
36449;SDS011;22475;51.390;7.180;2022-07-10T04:08:55;1.40;;;0.57;;
36449;SDS011;22475;51.390;7.180;2022-07-10T04:11:22;2.72;;;0.60;;
36449;SDS011;22475;51.390;7.180;2022-07-10T04:13:49;1.77;;;0.52;;
36449;SDS011;22475;51.390;7.180;2022-07-10T04:16:15;1.13;;;0.65;;
36449;SDS011;22475;51.390;7.180;2022-07-10T04:18:43;3.72;;;0.80;;
36449;SDS011;22475;51.390;7.180;2022-07-10T04:21:10;3.90;;;0.57;;
36449;SDS011;22475;51.390;7.180;2022-07-10T04:23:37;2.50;;;0.98;;
36449;SDS011;22475;51.390;7.180;2022-07-10T04:26:05;2.83;;;0.70;;
36449;SDS011;22475;51.390;7.180;2022-07-10T04:28:32;2.05;;;0.80;;
36449;SDS011;22475;51.390;7.180;2022-07-10T04:30:59;1.20;;;0.75;;
36449;SDS011;22475;51.390;7.180;2022-07-10T04:33:26;4.82;;;0.70;;
36449;SDS011;22475;51.390;7.180;2022-07-10T04:35:53;7.85;;;1.08;;
36449;SDS011;22475;51.390;7.180;2022-07-10T04:38:20;6.22;;;1.85;;
36449;SDS011;22475;51.390;7.180;2022-07-10T04:40:46;2.45;;;0.82;;
36449;SDS011;22475;51.390;7.180;2022-07-10T04:43:15;0.90;;;0.57;;
36449;SDS011;22475;51.390;7.180;2022-07-10T04:45:41;2.42;;;0.85;;
36449;SDS011;22475;51.390;7.180;2022-07-10T04:48:08;2.60;;;0.75;;
36449;SDS011;22475;51.390;7.180;2022-07-10T04:50:35;3.03;;;0.70;;
36449;SDS011;22475;51.390;7.180;2022-07-10T04:53:02;8.32;;;2.10;;
36449;SDS011;22475;51.390;7.180;2022-07-10T04:55:29;2.08;;;0.73;;
36449;SDS011;22475;51.390;7.180;2022-07-10T04:57:56;2.25;;;0.75;;
36449;SDS011;22475;51.390;7.180;2022-07-10T05:00:24;5.38;;;0.73;;
36449;SDS011;22475;51.390;7.180;2022-07-10T05:02:51;3.42;;;1.02;;
36449;SDS011;22475;51.390;7.180;2022-07-10T05:05:18;4.30;;;0.93;;
36449;SDS011;22475;51.390;7.180;2022-07-10T05:07:45;3.58;;;1.10;;
36449;SDS011;22475;51.390;7.180;2022-07-10T05:10:12;6.25;;;1.02;;
36449;SDS011;22475;51.390;7.180;2022-07-10T05:12:39;6.63;;;1.48;;
36449;SDS011;22475;51.390;7.180;2022-07-10T05:15:06;5.68;;;1.33;;
36449;SDS011;22475;51.390;7.180;2022-07-10T05:17:36;6.38;;;1.58;;
36449;SDS011;22475;51.390;7.180;2022-07-10T05:20:03;16.63;;;1.58;;
36449;SDS011;22475;51.390;7.180;2022-07-10T05:22:31;1.30;;;0.50;;
36449;SDS011;22475;51.390;7.180;2022-07-10T05:24:58;2.15;;;0.93;;
36449;SDS011;22475;51.390;7.180;2022-07-10T05:27:25;4.22;;;0.93;;
36449;SDS011;22475;51.390;7.180;2022-07-10T05:29:52;7.18;;;1.20;;
36449;SDS011;22475;51.390;7.180;2022-07-10T05:32:19;8.10;;;1.17;;
36449;SDS011;22475;51.390;7.180;2022-07-10T05:34:47;5.97;;;0.73;;
36449;SDS011;22475;51.390;7.180;2022-07-10T05:37:15;2.78;;;0.47;;
36449;SDS011;22475;51.390;7.180;2022-07-10T05:39:41;2.35;;;0.90;;
36449;SDS011;22475;51.390;7.180;2022-07-10T05:42:08;11.00;;;1.02;;
36449;SDS011;22475;51.390;7.180;2022-07-10T05:44:35;4.53;;;0.88;;
36449;SDS011;22475;51.390;7.180;2022-07-10T05:47:02;1.63;;;1.10;;
36449;SDS011;22475;51.390;7.180;2022-07-10T05:49:30;3.42;;;0.57;;
36449;SDS011;22475;51.390;7.180;2022-07-10T05:51:58;4.32;;;0.88;;
36449;SDS011;22475;51.390;7.180;2022-07-10T05:54:25;3.50;;;0.47;;
36449;SDS011;22475;51.390;7.180;2022-07-10T05:56:52;10.20;;;0.93;;
36449;SDS011;22475;51.390;7.180;2022-07-10T05:59:19;1.95;;;0.70;;
36449;SDS011;22475;51.390;7.180;2022-07-10T06:01:46;3.38;;;1.02;;
36449;SDS011;22475;51.390;7.180;2022-07-10T06:04:13;7.75;;;1.50;;
36449;SDS011;22475;51.390;7.180;2022-07-10T06:06:40;4.03;;;0.55;;
36449;SDS011;22475;51.390;7.180;2022-07-10T06:09:08;8.45;;;1.10;;
36449;SDS011;22475;51.390;7.180;2022-07-10T06:11:35;4.03;;;0.68;;
36449;SDS011;22475;51.390;7.180;2022-07-10T06:14:02;1.50;;;0.52;;
36449;SDS011;22475;51.390;7.180;2022-07-10T06:16:29;6.82;;;1.05;;
36449;SDS011;22475;51.390;7.180;2022-07-10T06:18:56;0.93;;;0.32;;
36449;SDS011;22475;51.390;7.180;2022-07-10T06:21:22;6.15;;;1.15;;
36449;SDS011;22475;51.390;7.180;2022-07-10T06:23:49;2.40;;;0.85;;
36449;SDS011;22475;51.390;7.180;2022-07-10T06:26:18;3.95;;;1.67;;
36449;SDS011;22475;51.390;7.180;2022-07-10T06:28:44;1.20;;;0.57;;
36449;SDS011;22475;51.390;7.180;2022-07-10T06:31:11;8.43;;;1.17;;
36449;SDS011;22475;51.390;7.180;2022-07-10T06:33:38;3.47;;;0.77;;
36449;SDS011;22475;51.390;7.180;2022-07-10T06:36:05;4.28;;;0.77;;
36449;SDS011;22475;51.390;7.180;2022-07-10T06:38:33;5.10;;;1.83;;
36449;SDS011;22475;51.390;7.180;2022-07-10T06:41:00;5.13;;;1.55;;
36449;SDS011;22475;51.390;7.180;2022-07-10T06:43:28;8.57;;;2.20;;
36449;SDS011;22475;51.390;7.180;2022-07-10T06:45:55;2.70;;;0.73;;
36449;SDS011;22475;51.390;7.180;2022-07-10T06:48:22;5.10;;;0.70;;
36449;SDS011;22475;51.390;7.180;2022-07-10T06:50:49;3.80;;;1.35;;
36449;SDS011;22475;51.390;7.180;2022-07-10T06:53:16;5.57;;;0.90;;
36449;SDS011;22475;51.390;7.180;2022-07-10T06:55:43;1.30;;;0.65;;
36449;SDS011;22475;51.390;7.180;2022-07-10T06:58:10;0.85;;;0.70;;
36449;SDS011;22475;51.390;7.180;2022-07-10T07:00:38;1.75;;;1.00;;
36449;SDS011;22475;51.390;7.180;2022-07-10T07:03:05;6.15;;;0.70;;
36449;SDS011;22475;51.390;7.180;2022-07-10T07:05:32;2.17;;;1.08;;
36449;SDS011;22475;51.390;7.180;2022-07-10T07:07:59;2.47;;;2.17;;
36449;SDS011;22475;51.390;7.180;2022-07-10T07:10:26;7.78;;;1.05;;
36449;SDS011;22475;51.390;7.180;2022-07-10T07:12:53;1.23;;;0.60;;
36449;SDS011;22475;51.390;7.180;2022-07-10T07:15:20;1.05;;;0.50;;
36449;SDS011;22475;51.390;7.180;2022-07-10T07:17:50;4.13;;;0.70;;
36449;SDS011;22475;51.390;7.180;2022-07-10T07:20:32;4.03;;;0.90;;
36449;SDS011;22475;51.390;7.180;2022-07-10T07:23:17;4.32;;;0.82;;
36449;SDS011;22475;51.390;7.180;2022-07-10T07:25:44;4.75;;;1.55;;
36449;SDS011;22475;51.390;7.180;2022-07-10T07:28:13;5.07;;;0.88;;
36449;SDS011;22475;51.390;7.180;2022-07-10T07:30:42;2.42;;;0.73;;
36449;SDS011;22475;51.390;7.180;2022-07-10T07:33:11;1.02;;;0.60;;
36449;SDS011;22475;51.390;7.180;2022-07-10T07:35:40;4.78;;;1.17;;
36449;SDS011;22475;51.390;7.180;2022-07-10T07:38:08;5.00;;;0.85;;
36449;SDS011;22475;51.390;7.180;2022-07-10T07:40:35;3.92;;;1.02;;
36449;SDS011;22475;51.390;7.180;2022-07-10T07:43:02;0.38;;;0.30;;
36449;SDS011;22475;51.390;7.180;2022-07-10T07:45:29;4.55;;;0.95;;
36449;SDS011;22475;51.390;7.180;2022-07-10T07:47:56;5.75;;;0.88;;
36449;SDS011;22475;51.390;7.180;2022-07-10T07:50:28;1.80;;;0.55;;
36449;SDS011;22475;51.390;7.180;2022-07-10T07:52:58;2.28;;;0.70;;
36449;SDS011;22475;51.390;7.180;2022-07-10T07:55:26;11.23;;;2.08;;
36449;SDS011;22475;51.390;7.180;2022-07-10T07:57:54;3.05;;;1.50;;
36449;SDS011;22475;51.390;7.180;2022-07-10T08:00:22;3.97;;;0.70;;
36449;SDS011;22475;51.390;7.180;2022-07-10T08:02:51;2.60;;;0.80;;
36449;SDS011;22475;51.390;7.180;2022-07-10T08:05:18;8.02;;;2.17;;
36449;SDS011;22475;51.390;7.180;2022-07-10T08:07:50;10.35;;;2.45;;
36449;SDS011;22475;51.390;7.180;2022-07-10T08:12:46;2.25;;;0.60;;
36449;SDS011;22475;51.390;7.180;2022-07-10T08:15:14;2.30;;;0.55;;
36449;SDS011;22475;51.390;7.180;2022-07-10T08:17:42;1.60;;;0.93;;
36449;SDS011;22475;51.390;7.180;2022-07-10T08:20:11;2.40;;;0.68;;
36449;SDS011;22475;51.390;7.180;2022-07-10T08:22:39;4.28;;;0.90;;
36449;SDS011;22475;51.390;7.180;2022-07-10T08:25:08;8.13;;;2.33;;
36449;SDS011;22475;51.390;7.180;2022-07-10T08:27:35;4.13;;;0.80;;
36449;SDS011;22475;51.390;7.180;2022-07-10T08:30:04;4.07;;;1.02;;
36449;SDS011;22475;51.390;7.180;2022-07-10T08:32:33;1.70;;;0.63;;
36449;SDS011;22475;51.390;7.180;2022-07-10T08:35:01;1.80;;;0.50;;
36449;SDS011;22475;51.390;7.180;2022-07-10T08:37:28;4.90;;;0.73;;
36449;SDS011;22475;51.390;7.180;2022-07-10T08:39:55;4.95;;;0.95;;
36449;SDS011;22475;51.390;7.180;2022-07-10T08:42:23;3.65;;;1.10;;
36449;SDS011;22475;51.390;7.180;2022-07-10T08:44:50;5.28;;;0.98;;
36449;SDS011;22475;51.390;7.180;2022-07-10T08:47:20;1.75;;;0.73;;
36449;SDS011;22475;51.390;7.180;2022-07-10T08:49:50;3.38;;;0.73;;
36449;SDS011;22475;51.390;7.180;2022-07-10T08:52:22;9.23;;;1.27;;
36449;SDS011;22475;51.390;7.180;2022-07-10T08:54:53;2.25;;;0.98;;
36449;SDS011;22475;51.390;7.180;2022-07-10T08:57:23;4.97;;;0.90;;
36449;SDS011;22475;51.390;7.180;2022-07-10T08:59:50;4.72;;;1.00;;
36449;SDS011;22475;51.390;7.180;2022-07-10T09:02:17;4.95;;;1.02;;
36449;SDS011;22475;51.390;7.180;2022-07-10T09:04:44;7.25;;;1.35;;
36449;SDS011;22475;51.390;7.180;2022-07-10T09:07:11;6.85;;;0.70;;
36449;SDS011;22475;51.390;7.180;2022-07-10T09:09:50;3.13;;;0.88;;
36449;SDS011;22475;51.390;7.180;2022-07-10T09:12:19;3.65;;;0.85;;
36449;SDS011;22475;51.390;7.180;2022-07-10T09:14:47;3.72;;;1.30;;
36449;SDS011;22475;51.390;7.180;2022-07-10T09:17:15;3.78;;;0.57;;
36449;SDS011;22475;51.390;7.180;2022-07-10T09:19:42;2.78;;;0.82;;
36449;SDS011;22475;51.390;7.180;2022-07-10T09:22:10;10.05;;;1.38;;
36449;SDS011;22475;51.390;7.180;2022-07-10T09:24:38;3.35;;;0.82;;
36449;SDS011;22475;51.390;7.180;2022-07-10T09:27:06;5.07;;;1.45;;
36449;SDS011;22475;51.390;7.180;2022-07-10T09:29:44;2.55;;;1.50;;
36449;SDS011;22475;51.390;7.180;2022-07-10T09:32:13;3.70;;;1.00;;
36449;SDS011;22475;51.390;7.180;2022-07-10T09:34:41;0.93;;;0.67;;
36449;SDS011;22475;51.390;7.180;2022-07-10T09:37:20;2.90;;;0.98;;
36449;SDS011;22475;51.390;7.180;2022-07-10T09:42:44;4.55;;;1.42;;
36449;SDS011;22475;51.390;7.180;2022-07-10T09:45:14;4.43;;;1.15;;
36449;SDS011;22475;51.390;7.180;2022-07-10T09:47:45;1.27;;;0.80;;
36449;SDS011;22475;51.390;7.180;2022-07-10T09:50:20;3.58;;;0.88;;
36449;SDS011;22475;51.390;7.180;2022-07-10T09:52:50;8.98;;;1.30;;
36449;SDS011;22475;51.390;7.180;2022-07-10T09:55:19;3.45;;;1.10;;
36449;SDS011;22475;51.390;7.180;2022-07-10T09:57:52;4.93;;;0.95;;
36449;SDS011;22475;51.390;7.180;2022-07-10T10:00:22;2.63;;;1.27;;
36449;SDS011;22475;51.390;7.180;2022-07-10T10:02:52;7.13;;;1.67;;
36449;SDS011;22475;51.390;7.180;2022-07-10T10:05:23;1.10;;;1.02;;
36449;SDS011;22475;51.390;7.180;2022-07-10T10:08:01;3.05;;;1.10;;
36449;SDS011;22475;51.390;7.180;2022-07-10T10:10:31;7.50;;;1.10;;
36449;SDS011;22475;51.390;7.180;2022-07-10T10:13:05;4.50;;;0.88;;
36449;SDS011;22475;51.390;7.180;2022-07-10T10:15:36;3.58;;;1.23;;
36449;SDS011;22475;51.390;7.180;2022-07-10T10:18:05;3.42;;;2.55;;
36449;SDS011;22475;51.390;7.180;2022-07-10T10:20:32;3.88;;;1.70;;
36449;SDS011;22475;51.390;7.180;2022-07-10T10:23:02;1.20;;;1.05;;
36449;SDS011;22475;51.390;7.180;2022-07-10T10:25:32;2.40;;;1.10;;
36449;SDS011;22475;51.390;7.180;2022-07-10T10:28:00;5.97;;;1.85;;
36449;SDS011;22475;51.390;7.180;2022-07-10T10:30:28;3.42;;;1.77;;
36449;SDS011;22475;51.390;7.180;2022-07-10T10:32:56;3.22;;;1.40;;
36449;SDS011;22475;51.390;7.180;2022-07-10T10:35:44;3.05;;;1.15;;
36449;SDS011;22475;51.390;7.180;2022-07-10T10:38:12;1.88;;;0.90;;
36449;SDS011;22475;51.390;7.180;2022-07-10T10:40:40;1.40;;;1.30;;
36449;SDS011;22475;51.390;7.180;2022-07-10T10:43:17;2.25;;;1.10;;
36449;SDS011;22475;51.390;7.180;2022-07-10T10:45:45;1.83;;;1.30;;
36449;SDS011;22475;51.390;7.180;2022-07-10T10:48:12;5.13;;;2.00;;
36449;SDS011;22475;51.390;7.180;2022-07-10T10:50:40;5.85;;;1.85;;
36449;SDS011;22475;51.390;7.180;2022-07-10T10:53:16;1.20;;;0.80;;
36449;SDS011;22475;51.390;7.180;2022-07-10T10:58:48;4.85;;;3.20;;
36449;SDS011;22475;51.390;7.180;2022-07-10T11:01:23;3.75;;;2.83;;
36449;SDS011;22475;51.390;7.180;2022-07-10T11:06:41;1.80;;;0.90;;
36449;SDS011;22475;51.390;7.180;2022-07-10T11:09:22;0.90;;;0.90;;
36449;SDS011;22475;51.390;7.180;2022-07-10T11:12:00;5.30;;;4.80;;
36449;SDS011;22475;51.390;7.180;2022-07-10T11:14:28;4.90;;;4.43;;
36449;SDS011;22475;51.390;7.180;2022-07-10T11:16:56;3.08;;;1.35;;
36449;SDS011;22475;51.390;7.180;2022-07-10T11:19:24;1.02;;;0.93;;
36449;SDS011;22475;51.390;7.180;2022-07-10T11:21:55;3.53;;;3.15;;
36449;SDS011;22475;51.390;7.180;2022-07-10T11:24:45;6.70;;;4.43;;
36449;SDS011;22475;51.390;7.180;2022-07-10T11:27:24;2.20;;;1.80;;
36449;SDS011;22475;51.390;7.180;2022-07-10T11:29:58;2.22;;;2.03;;
36449;SDS011;22475;51.390;7.180;2022-07-10T11:32:26;4.88;;;4.47;;
36449;SDS011;22475;51.390;7.180;2022-07-10T11:34:54;5.43;;;5.03;;
36449;SDS011;22475;51.390;7.180;2022-07-10T11:37:21;6.88;;;4.68;;
36449;SDS011;22475;51.390;7.180;2022-07-10T11:42:51;3.00;;;2.72;;
36449;SDS011;22475;51.390;7.180;2022-07-10T11:45:23;3.35;;;3.15;;
36449;SDS011;22475;51.390;7.180;2022-07-10T11:47:54;2.80;;;2.60;;
36449;SDS011;22475;51.390;7.180;2022-07-10T11:50:21;3.35;;;3.15;;
36449;SDS011;22475;51.390;7.180;2022-07-10T11:52:48;4.55;;;3.55;;
36449;SDS011;22475;51.390;7.180;2022-07-10T11:55:17;2.78;;;2.58;;
36449;SDS011;22475;51.390;7.180;2022-07-10T11:57:45;3.88;;;2.83;;
36449;SDS011;22475;51.390;7.180;2022-07-10T12:00:23;3.88;;;3.28;;
36449;SDS011;22475;51.390;7.180;2022-07-10T12:02:51;2.55;;;2.35;;
36449;SDS011;22475;51.390;7.180;2022-07-10T12:05:31;5.10;;;2.67;;
36449;SDS011;22475;51.390;7.180;2022-07-10T12:07:58;4.30;;;2.85;;
36449;SDS011;22475;51.390;7.180;2022-07-10T12:10:27;3.50;;;3.15;;
36449;SDS011;22475;51.390;7.180;2022-07-10T12:13:02;5.70;;;2.45;;
36449;SDS011;22475;51.390;7.180;2022-07-10T12:15:32;3.47;;;2.80;;
36449;SDS011;22475;51.390;7.180;2022-07-10T12:18:02;2.45;;;2.22;;
36449;SDS011;22475;51.390;7.180;2022-07-10T12:20:29;2.70;;;2.45;;
36449;SDS011;22475;51.390;7.180;2022-07-10T12:22:56;3.22;;;2.92;;
36449;SDS011;22475;51.390;7.180;2022-07-10T12:25:23;5.60;;;3.35;;
36449;SDS011;22475;51.390;7.180;2022-07-10T12:27:55;2.20;;;2.10;;
36449;SDS011;22475;51.390;7.180;2022-07-10T12:30:23;2.53;;;2.30;;
36449;SDS011;22475;51.390;7.180;2022-07-10T12:33:05;2.90;;;2.20;;
36449;SDS011;22475;51.390;7.180;2022-07-10T12:35:47;1.67;;;1.58;;
36449;SDS011;22475;51.390;7.180;2022-07-10T12:38:18;2.08;;;1.98;;
36449;SDS011;22475;51.390;7.180;2022-07-10T12:40:46;1.55;;;1.45;;
36449;SDS011;22475;51.390;7.180;2022-07-10T12:43:24;2.25;;;1.73;;
36449;SDS011;22475;51.390;7.180;2022-07-10T12:46:07;1.15;;;1.05;;
36449;SDS011;22475;51.390;7.180;2022-07-10T12:48:36;2.75;;;0.95;;
36449;SDS011;22475;51.390;7.180;2022-07-10T12:51:21;1.90;;;1.70;;
36449;SDS011;22475;51.390;7.180;2022-07-10T12:53:52;0.77;;;0.77;;
36449;SDS011;22475;51.390;7.180;2022-07-10T12:56:29;3.67;;;1.05;;
36449;SDS011;22475;51.390;7.180;2022-07-10T12:58:59;1.35;;;1.25;;
36449;SDS011;22475;51.390;7.180;2022-07-10T13:01:27;1.83;;;1.10;;
36449;SDS011;22475;51.390;7.180;2022-07-10T13:03:59;2.17;;;1.65;;
36449;SDS011;22475;51.390;7.180;2022-07-10T13:06:30;1.40;;;1.30;;
36449;SDS011;22475;51.390;7.180;2022-07-10T13:08:58;1.65;;;1.33;;
36449;SDS011;22475;51.390;7.180;2022-07-10T13:11:25;2.85;;;1.60;;
36449;SDS011;22475;51.390;7.180;2022-07-10T13:13:53;1.30;;;1.02;;
36449;SDS011;22475;51.390;7.180;2022-07-10T13:16:22;2.65;;;1.40;;
36449;SDS011;22475;51.390;7.180;2022-07-10T13:18:49;2.47;;;2.10;;
36449;SDS011;22475;51.390;7.180;2022-07-10T13:21:16;3.15;;;1.70;;
36449;SDS011;22475;51.390;7.180;2022-07-10T13:23:43;2.35;;;2.17;;
36449;SDS011;22475;51.390;7.180;2022-07-10T13:26:10;1.80;;;1.70;;
36449;SDS011;22475;51.390;7.180;2022-07-10T13:28:37;6.65;;;1.73;;
36449;SDS011;22475;51.390;7.180;2022-07-10T13:31:04;3.85;;;2.72;;
36449;SDS011;22475;51.390;7.180;2022-07-10T13:33:34;1.70;;;1.55;;
36449;SDS011;22475;51.390;7.180;2022-07-10T13:36:01;4.47;;;1.85;;
36449;SDS011;22475;51.390;7.180;2022-07-10T13:38:29;1.85;;;1.75;;
36449;SDS011;22475;51.390;7.180;2022-07-10T13:40:57;1.45;;;1.33;;
36449;SDS011;22475;51.390;7.180;2022-07-10T13:43:23;1.60;;;1.20;;
36449;SDS011;22475;51.390;7.180;2022-07-10T13:45:55;3.40;;;1.50;;
36449;SDS011;22475;51.390;7.180;2022-07-10T13:48:23;2.42;;;1.63;;
36449;SDS011;22475;51.390;7.180;2022-07-10T13:50:52;2.88;;;1.48;;
36449;SDS011;22475;51.390;7.180;2022-07-10T13:53:19;5.43;;;1.70;;
36449;SDS011;22475;51.390;7.180;2022-07-10T13:55:47;2.80;;;1.42;;
36449;SDS011;22475;51.390;7.180;2022-07-10T13:58:14;1.83;;;1.70;;
36449;SDS011;22475;51.390;7.180;2022-07-10T14:00:41;1.73;;;1.50;;
36449;SDS011;22475;51.390;7.180;2022-07-10T14:05:52;1.80;;;1.70;;
36449;SDS011;22475;51.390;7.180;2022-07-10T14:08:19;1.73;;;1.63;;
36449;SDS011;22475;51.390;7.180;2022-07-10T14:10:46;1.95;;;1.80;;
36449;SDS011;22475;51.390;7.180;2022-07-10T14:13:13;3.35;;;1.75;;
36449;SDS011;22475;51.390;7.180;2022-07-10T14:15:40;1.23;;;1.13;;
36449;SDS011;22475;51.390;7.180;2022-07-10T14:18:09;1.30;;;1.20;;
36449;SDS011;22475;51.390;7.180;2022-07-10T14:20:36;2.95;;;1.45;;
36449;SDS011;22475;51.390;7.180;2022-07-10T14:23:21;5.40;;;1.35;;
36449;SDS011;22475;51.390;7.180;2022-07-10T14:25:48;1.83;;;1.30;;
36449;SDS011;22475;51.390;7.180;2022-07-10T14:28:15;2.83;;;1.63;;
36449;SDS011;22475;51.390;7.180;2022-07-10T14:30:42;1.20;;;1.10;;
36449;SDS011;22475;51.390;7.180;2022-07-10T14:33:09;1.52;;;1.42;;
36449;SDS011;22475;51.390;7.180;2022-07-10T14:35:36;4.30;;;1.88;;
36449;SDS011;22475;51.390;7.180;2022-07-10T14:38:03;4.18;;;1.70;;
36449;SDS011;22475;51.390;7.180;2022-07-10T14:40:32;1.45;;;1.23;;
36449;SDS011;22475;51.390;7.180;2022-07-10T14:42:59;1.20;;;0.80;;
36449;SDS011;22475;51.390;7.180;2022-07-10T14:45:29;1.23;;;1.02;;
36449;SDS011;22475;51.390;7.180;2022-07-10T14:47:56;1.42;;;1.27;;
36449;SDS011;22475;51.390;7.180;2022-07-10T14:50:23;1.08;;;0.80;;
36449;SDS011;22475;51.390;7.180;2022-07-10T14:52:51;1.40;;;1.10;;
36449;SDS011;22475;51.390;7.180;2022-07-10T14:55:17;1.58;;;1.48;;
36449;SDS011;22475;51.390;7.180;2022-07-10T14:57:46;1.20;;;0.95;;
36449;SDS011;22475;51.390;7.180;2022-07-10T15:00:14;0.80;;;0.80;;
36449;SDS011;22475;51.390;7.180;2022-07-10T15:02:41;1.42;;;0.70;;
36449;SDS011;22475;51.390;7.180;2022-07-10T15:05:08;2.90;;;0.77;;
36449;SDS011;22475;51.390;7.180;2022-07-10T15:07:35;2.05;;;0.75;;
36449;SDS011;22475;51.390;7.180;2022-07-10T15:10:02;1.30;;;1.25;;
36449;SDS011;22475;51.390;7.180;2022-07-10T15:12:29;1.38;;;1.27;;